sensor_id;sensor_type;location;lat;lon;timestamp;P1;durP1;ratioP1;P2;durP2;ratioP2
61756;SDS011;57225;61.460;24.060;2023-11-22T00:02:08;5.85;;;2.65;;
61756;SDS011;57225;61.460;24.060;2023-11-22T00:04:52;7.70;;;2.95;;
61756;SDS011;57225;61.460;24.060;2023-11-22T00:07:37;6.18;;;2.58;;
61756;SDS011;57225;61.460;24.060;2023-11-22T00:10:21;5.72;;;2.85;;
61756;SDS011;57225;61.460;24.060;2023-11-22T00:13:05;4.05;;;2.10;;
61756;SDS011;57225;61.460;24.060;2023-11-22T00:15:50;7.32;;;2.45;;
61756;SDS011;57225;61.460;24.060;2023-11-22T00:18:35;7.30;;;3.05;;
61756;SDS011;57225;61.460;24.060;2023-11-22T00:21:21;6.65;;;2.75;;
61756;SDS011;57225;61.460;24.060;2023-11-22T00:24:05;8.40;;;2.50;;
61756;SDS011;57225;61.460;24.060;2023-11-22T00:26:51;8.63;;;2.88;;
61756;SDS011;57225;61.460;24.060;2023-11-22T00:29:35;7.25;;;3.08;;
61756;SDS011;57225;61.460;24.060;2023-11-22T00:32:19;6.47;;;3.10;;
61756;SDS011;57225;61.460;24.060;2023-11-22T00:35:04;6.38;;;2.97;;
61756;SDS011;57225;61.460;24.060;2023-11-22T00:37:48;4.53;;;2.63;;
61756;SDS011;57225;61.460;24.060;2023-11-22T00:40:33;7.85;;;3.85;;
61756;SDS011;57225;61.460;24.060;2023-11-22T00:43:18;5.80;;;3.03;;
61756;SDS011;57225;61.460;24.060;2023-11-22T00:46:02;5.38;;;2.30;;
61756;SDS011;57225;61.460;24.060;2023-11-22T00:48:47;5.00;;;2.05;;
61756;SDS011;57225;61.460;24.060;2023-11-22T00:51:31;5.00;;;2.33;;
61756;SDS011;57225;61.460;24.060;2023-11-22T00:54:16;3.58;;;1.95;;
61756;SDS011;57225;61.460;24.060;2023-11-22T00:57:02;4.25;;;2.30;;
61756;SDS011;57225;61.460;24.060;2023-11-22T00:59:47;5.82;;;2.35;;
61756;SDS011;57225;61.460;24.060;2023-11-22T01:02:32;5.78;;;2.00;;
61756;SDS011;57225;61.460;24.060;2023-11-22T01:05:17;3.70;;;2.15;;
61756;SDS011;57225;61.460;24.060;2023-11-22T01:08:01;4.63;;;1.95;;
61756;SDS011;57225;61.460;24.060;2023-11-22T01:10:46;5.70;;;2.00;;
61756;SDS011;57225;61.460;24.060;2023-11-22T01:13:31;4.57;;;2.10;;
61756;SDS011;57225;61.460;24.060;2023-11-22T01:16:24;5.32;;;2.30;;
61756;SDS011;57225;61.460;24.060;2023-11-22T01:19:09;6.03;;;2.50;;
61756;SDS011;57225;61.460;24.060;2023-11-22T01:21:53;4.50;;;2.28;;
61756;SDS011;57225;61.460;24.060;2023-11-22T01:24:37;5.05;;;2.67;;
61756;SDS011;57225;61.460;24.060;2023-11-22T01:27:22;7.80;;;3.25;;
61756;SDS011;57225;61.460;24.060;2023-11-22T01:30:07;5.47;;;2.78;;
61756;SDS011;57225;61.460;24.060;2023-11-22T01:32:52;7.47;;;3.50;;
61756;SDS011;57225;61.460;24.060;2023-11-22T01:35:36;6.30;;;2.70;;
61756;SDS011;57225;61.460;24.060;2023-11-22T01:38:22;4.88;;;2.83;;
61756;SDS011;57225;61.460;24.060;2023-11-22T01:41:07;5.75;;;3.00;;
61756;SDS011;57225;61.460;24.060;2023-11-22T01:43:51;6.28;;;3.78;;
61756;SDS011;57225;61.460;24.060;2023-11-22T01:46:36;9.77;;;3.05;;
61756;SDS011;57225;61.460;24.060;2023-11-22T01:49:22;6.43;;;3.00;;
61756;SDS011;57225;61.460;24.060;2023-11-22T01:52:07;5.78;;;3.03;;
61756;SDS011;57225;61.460;24.060;2023-11-22T01:54:52;7.47;;;3.03;;
61756;SDS011;57225;61.460;24.060;2023-11-22T01:57:37;7.03;;;2.72;;
61756;SDS011;57225;61.460;24.060;2023-11-22T02:00:21;7.72;;;3.38;;
61756;SDS011;57225;61.460;24.060;2023-11-22T02:03:10;6.57;;;2.90;;
61756;SDS011;57225;61.460;24.060;2023-11-22T02:05:55;5.45;;;2.60;;
61756;SDS011;57225;61.460;24.060;2023-11-22T02:08:39;5.05;;;2.60;;
61756;SDS011;57225;61.460;24.060;2023-11-22T02:11:24;8.65;;;2.90;;
61756;SDS011;57225;61.460;24.060;2023-11-22T02:14:11;5.85;;;2.67;;
61756;SDS011;57225;61.460;24.060;2023-11-22T02:16:55;5.30;;;2.88;;
61756;SDS011;57225;61.460;24.060;2023-11-22T02:19:42;5.97;;;2.83;;
61756;SDS011;57225;61.460;24.060;2023-11-22T02:22:27;6.38;;;2.60;;
61756;SDS011;57225;61.460;24.060;2023-11-22T02:25:11;5.30;;;2.75;;
61756;SDS011;57225;61.460;24.060;2023-11-22T02:27:56;7.22;;;2.90;;
61756;SDS011;57225;61.460;24.060;2023-11-22T02:30:40;12.60;;;2.70;;
61756;SDS011;57225;61.460;24.060;2023-11-22T02:33:25;12.68;;;3.28;;
61756;SDS011;57225;61.460;24.060;2023-11-22T02:36:10;11.65;;;3.05;;
61756;SDS011;57225;61.460;24.060;2023-11-22T02:38:56;7.25;;;3.03;;
61756;SDS011;57225;61.460;24.060;2023-11-22T02:41:40;4.72;;;2.47;;
61756;SDS011;57225;61.460;24.060;2023-11-22T02:44:29;10.20;;;3.47;;
61756;SDS011;57225;61.460;24.060;2023-11-22T02:47:14;8.77;;;3.38;;
61756;SDS011;57225;61.460;24.060;2023-11-22T02:49:58;7.68;;;3.10;;
61756;SDS011;57225;61.460;24.060;2023-11-22T02:52:44;6.15;;;3.00;;
61756;SDS011;57225;61.460;24.060;2023-11-22T02:55:28;5.68;;;2.97;;
61756;SDS011;57225;61.460;24.060;2023-11-22T02:58:13;8.60;;;3.17;;
61756;SDS011;57225;61.460;24.060;2023-11-22T03:00:57;7.78;;;3.17;;
61756;SDS011;57225;61.460;24.060;2023-11-22T03:03:41;7.38;;;3.00;;
61756;SDS011;57225;61.460;24.060;2023-11-22T03:06:26;12.73;;;3.05;;
61756;SDS011;57225;61.460;24.060;2023-11-22T03:09:12;9.43;;;3.67;;
61756;SDS011;57225;61.460;24.060;2023-11-22T03:11:57;6.30;;;3.60;;
61756;SDS011;57225;61.460;24.060;2023-11-22T03:14:41;8.63;;;2.97;;
61756;SDS011;57225;61.460;24.060;2023-11-22T03:17:26;6.60;;;3.05;;
61756;SDS011;57225;61.460;24.060;2023-11-22T03:20:14;6.38;;;3.17;;
61756;SDS011;57225;61.460;24.060;2023-11-22T03:23:00;8.77;;;3.85;;
61756;SDS011;57225;61.460;24.060;2023-11-22T03:25:45;5.50;;;3.10;;
61756;SDS011;57225;61.460;24.060;2023-11-22T03:28:30;8.27;;;3.92;;
61756;SDS011;57225;61.460;24.060;2023-11-22T03:31:14;10.82;;;4.13;;
61756;SDS011;57225;61.460;24.060;2023-11-22T03:33:59;7.45;;;3.30;;
61756;SDS011;57225;61.460;24.060;2023-11-22T03:36:44;11.15;;;3.35;;
61756;SDS011;57225;61.460;24.060;2023-11-22T03:39:28;5.80;;;2.90;;
61756;SDS011;57225;61.460;24.060;2023-11-22T03:42:14;8.52;;;3.60;;
61756;SDS011;57225;61.460;24.060;2023-11-22T03:45:00;7.45;;;3.70;;
61756;SDS011;57225;61.460;24.060;2023-11-22T03:47:44;10.10;;;3.58;;
61756;SDS011;57225;61.460;24.060;2023-11-22T03:50:28;7.40;;;3.28;;
61756;SDS011;57225;61.460;24.060;2023-11-22T03:53:13;9.90;;;3.22;;
61756;SDS011;57225;61.460;24.060;2023-11-22T03:55:57;21.40;;;3.60;;
61756;SDS011;57225;61.460;24.060;2023-11-22T03:58:42;12.18;;;3.55;;
61756;SDS011;57225;61.460;24.060;2023-11-22T04:01:28;13.85;;;3.60;;
61756;SDS011;57225;61.460;24.060;2023-11-22T04:04:12;7.07;;;2.95;;
61756;SDS011;57225;61.460;24.060;2023-11-22T04:06:57;8.75;;;3.60;;
61756;SDS011;57225;61.460;24.060;2023-11-22T04:09:42;7.95;;;3.53;;
61756;SDS011;57225;61.460;24.060;2023-11-22T04:12:27;6.47;;;3.10;;
61756;SDS011;57225;61.460;24.060;2023-11-22T04:15:11;11.48;;;3.50;;
61756;SDS011;57225;61.460;24.060;2023-11-22T04:17:56;13.93;;;3.42;;
61756;SDS011;57225;61.460;24.060;2023-11-22T04:20:40;5.75;;;2.85;;
61756;SDS011;57225;61.460;24.060;2023-11-22T04:23:25;7.28;;;3.10;;
61756;SDS011;57225;61.460;24.060;2023-11-22T04:26:10;9.18;;;3.05;;
61756;SDS011;57225;61.460;24.060;2023-11-22T04:28:54;5.47;;;2.80;;
61756;SDS011;57225;61.460;24.060;2023-11-22T04:31:39;10.93;;;3.22;;
61756;SDS011;57225;61.460;24.060;2023-11-22T04:34:23;12.63;;;3.53;;
61756;SDS011;57225;61.460;24.060;2023-11-22T04:40:16;13.60;;;3.72;;
61756;SDS011;57225;61.460;24.060;2023-11-22T04:43:01;7.50;;;3.05;;
61756;SDS011;57225;61.460;24.060;2023-11-22T04:45:45;10.43;;;2.70;;
61756;SDS011;57225;61.460;24.060;2023-11-22T04:48:30;11.18;;;2.90;;
61756;SDS011;57225;61.460;24.060;2023-11-22T04:51:14;6.10;;;2.85;;
61756;SDS011;57225;61.460;24.060;2023-11-22T04:54:00;10.10;;;3.03;;
61756;SDS011;57225;61.460;24.060;2023-11-22T04:56:44;10.43;;;3.17;;
61756;SDS011;57225;61.460;24.060;2023-11-22T04:59:29;31.27;;;9.15;;
61756;SDS011;57225;61.460;24.060;2023-11-22T05:02:13;36.88;;;10.80;;
61756;SDS011;57225;61.460;24.060;2023-11-22T05:04:58;37.70;;;10.52;;
61756;SDS011;57225;61.460;24.060;2023-11-22T05:07:42;24.95;;;8.63;;
61756;SDS011;57225;61.460;24.060;2023-11-22T05:10:28;32.97;;;7.78;;
61756;SDS011;57225;61.460;24.060;2023-11-22T05:13:13;25.20;;;6.78;;
61756;SDS011;57225;61.460;24.060;2023-11-22T05:15:57;23.92;;;4.28;;
61756;SDS011;57225;61.460;24.060;2023-11-22T05:18:41;27.00;;;3.97;;
61756;SDS011;57225;61.460;24.060;2023-11-22T05:21:26;12.60;;;2.47;;
61756;SDS011;57225;61.460;24.060;2023-11-22T05:24:11;7.22;;;2.65;;
61756;SDS011;57225;61.460;24.060;2023-11-22T05:26:55;18.52;;;3.75;;
61756;SDS011;57225;61.460;24.060;2023-11-22T05:29:40;13.35;;;3.00;;
61756;SDS011;57225;61.460;24.060;2023-11-22T05:32:24;7.97;;;3.10;;
61756;SDS011;57225;61.460;24.060;2023-11-22T05:35:09;11.00;;;3.40;;
61756;SDS011;57225;61.460;24.060;2023-11-22T05:37:53;12.20;;;3.15;;
61756;SDS011;57225;61.460;24.060;2023-11-22T05:40:37;7.53;;;2.70;;
61756;SDS011;57225;61.460;24.060;2023-11-22T05:43:22;8.60;;;3.30;;
61756;SDS011;57225;61.460;24.060;2023-11-22T05:46:10;14.35;;;3.92;;
61756;SDS011;57225;61.460;24.060;2023-11-22T05:48:56;9.25;;;3.50;;
61756;SDS011;57225;61.460;24.060;2023-11-22T05:51:40;13.85;;;3.15;;
61756;SDS011;57225;61.460;24.060;2023-11-22T05:54:25;6.63;;;2.83;;
61756;SDS011;57225;61.460;24.060;2023-11-22T05:57:10;11.55;;;3.28;;
61756;SDS011;57225;61.460;24.060;2023-11-22T05:59:54;10.60;;;3.17;;
61756;SDS011;57225;61.460;24.060;2023-11-22T06:02:39;9.57;;;3.20;;
61756;SDS011;57225;61.460;24.060;2023-11-22T06:05:23;22.05;;;3.90;;
61756;SDS011;57225;61.460;24.060;2023-11-22T06:08:09;7.30;;;3.13;;
61756;SDS011;57225;61.460;24.060;2023-11-22T06:10:53;8.48;;;3.25;;
61756;SDS011;57225;61.460;24.060;2023-11-22T06:13:41;9.95;;;2.83;;
61756;SDS011;57225;61.460;24.060;2023-11-22T06:16:31;9.75;;;3.25;;
61756;SDS011;57225;61.460;24.060;2023-11-22T06:19:15;8.30;;;3.53;;
61756;SDS011;57225;61.460;24.060;2023-11-22T06:22:00;13.88;;;3.28;;
61756;SDS011;57225;61.460;24.060;2023-11-22T06:24:45;12.48;;;3.20;;
61756;SDS011;57225;61.460;24.060;2023-11-22T06:27:31;6.88;;;2.60;;
61756;SDS011;57225;61.460;24.060;2023-11-22T06:30:16;11.98;;;2.53;;
61756;SDS011;57225;61.460;24.060;2023-11-22T06:33:01;7.35;;;2.88;;
61756;SDS011;57225;61.460;24.060;2023-11-22T06:35:45;6.72;;;2.63;;
61756;SDS011;57225;61.460;24.060;2023-11-22T06:38:30;6.20;;;2.88;;
61756;SDS011;57225;61.460;24.060;2023-11-22T06:41:14;13.05;;;2.63;;
61756;SDS011;57225;61.460;24.060;2023-11-22T06:44:01;11.32;;;2.45;;
61756;SDS011;57225;61.460;24.060;2023-11-22T06:46:47;13.05;;;2.58;;
61756;SDS011;57225;61.460;24.060;2023-11-22T06:49:31;6.55;;;2.38;;
61756;SDS011;57225;61.460;24.060;2023-11-22T06:52:16;8.25;;;2.30;;
61756;SDS011;57225;61.460;24.060;2023-11-22T06:55:01;10.65;;;2.35;;
61756;SDS011;57225;61.460;24.060;2023-11-22T06:57:46;12.40;;;2.67;;
61756;SDS011;57225;61.460;24.060;2023-11-22T07:00:30;7.30;;;2.60;;
61756;SDS011;57225;61.460;24.060;2023-11-22T07:03:15;3.85;;;1.98;;
61756;SDS011;57225;61.460;24.060;2023-11-22T07:05:59;9.25;;;2.42;;
61756;SDS011;57225;61.460;24.060;2023-11-22T07:08:44;6.03;;;2.05;;
61756;SDS011;57225;61.460;24.060;2023-11-22T07:11:29;7.25;;;2.60;;
61756;SDS011;57225;61.460;24.060;2023-11-22T07:14:14;8.18;;;2.47;;
61756;SDS011;57225;61.460;24.060;2023-11-22T07:17:00;8.27;;;2.22;;
61756;SDS011;57225;61.460;24.060;2023-11-22T07:19:45;7.25;;;2.78;;
61756;SDS011;57225;61.460;24.060;2023-11-22T07:22:32;3.80;;;2.05;;
61756;SDS011;57225;61.460;24.060;2023-11-22T07:25:17;4.25;;;2.35;;
61756;SDS011;57225;61.460;24.060;2023-11-22T07:28:02;9.32;;;2.60;;
61756;SDS011;57225;61.460;24.060;2023-11-22T07:30:47;20.63;;;3.15;;
61756;SDS011;57225;61.460;24.060;2023-11-22T07:33:32;7.22;;;2.05;;
61756;SDS011;57225;61.460;24.060;2023-11-22T07:36:16;9.98;;;2.30;;
61756;SDS011;57225;61.460;24.060;2023-11-22T07:39:01;3.25;;;2.13;;
61756;SDS011;57225;61.460;24.060;2023-11-22T07:41:46;6.65;;;2.25;;
61756;SDS011;57225;61.460;24.060;2023-11-22T07:44:33;13.85;;;2.25;;
61756;SDS011;57225;61.460;24.060;2023-11-22T07:47:19;4.25;;;2.30;;
61756;SDS011;57225;61.460;24.060;2023-11-22T07:50:04;15.27;;;2.85;;
61756;SDS011;57225;61.460;24.060;2023-11-22T07:52:50;5.38;;;2.30;;
61756;SDS011;57225;61.460;24.060;2023-11-22T07:55:35;5.90;;;2.30;;
61756;SDS011;57225;61.460;24.060;2023-11-22T07:58:21;13.15;;;2.38;;
61756;SDS011;57225;61.460;24.060;2023-11-22T08:01:05;12.48;;;2.88;;
61756;SDS011;57225;61.460;24.060;2023-11-22T08:03:56;3.42;;;2.08;;
61756;SDS011;57225;61.460;24.060;2023-11-22T08:06:41;7.55;;;2.08;;
61756;SDS011;57225;61.460;24.060;2023-11-22T08:09:25;5.90;;;2.20;;
61756;SDS011;57225;61.460;24.060;2023-11-22T08:12:10;6.95;;;1.98;;
61756;SDS011;57225;61.460;24.060;2023-11-22T08:14:57;5.38;;;1.77;;
61756;SDS011;57225;61.460;24.060;2023-11-22T08:17:42;6.25;;;1.67;;
61756;SDS011;57225;61.460;24.060;2023-11-22T08:20:27;7.65;;;1.90;;
61756;SDS011;57225;61.460;24.060;2023-11-22T08:23:11;8.43;;;1.80;;
61756;SDS011;57225;61.460;24.060;2023-11-22T08:25:59;9.07;;;2.00;;
61756;SDS011;57225;61.460;24.060;2023-11-22T08:28:44;13.50;;;2.55;;
61756;SDS011;57225;61.460;24.060;2023-11-22T08:31:28;4.75;;;1.77;;
61756;SDS011;57225;61.460;24.060;2023-11-22T08:34:14;5.85;;;2.50;;
61756;SDS011;57225;61.460;24.060;2023-11-22T08:42:58;6.95;;;1.98;;
61756;SDS011;57225;61.460;24.060;2023-11-22T08:45:42;5.13;;;2.30;;
61756;SDS011;57225;61.460;24.060;2023-11-22T08:48:27;10.20;;;2.47;;
61756;SDS011;57225;61.460;24.060;2023-11-22T08:51:13;13.45;;;2.70;;
61756;SDS011;57225;61.460;24.060;2023-11-22T08:53:59;17.48;;;3.38;;
61756;SDS011;57225;61.460;24.060;2023-11-22T08:56:43;11.75;;;2.60;;
61756;SDS011;57225;61.460;24.060;2023-11-22T08:59:30;4.18;;;2.17;;
61756;SDS011;57225;61.460;24.060;2023-11-22T09:02:16;7.90;;;2.20;;
61756;SDS011;57225;61.460;24.060;2023-11-22T09:05:05;5.53;;;2.35;;
61756;SDS011;57225;61.460;24.060;2023-11-22T09:07:53;7.20;;;2.20;;
61756;SDS011;57225;61.460;24.060;2023-11-22T09:10:39;5.35;;;2.45;;
61756;SDS011;57225;61.460;24.060;2023-11-22T09:13:24;8.73;;;2.70;;
61756;SDS011;57225;61.460;24.060;2023-11-22T09:16:09;7.43;;;2.13;;
61756;SDS011;57225;61.460;24.060;2023-11-22T09:18:54;7.10;;;2.10;;
61756;SDS011;57225;61.460;24.060;2023-11-22T09:21:39;8.23;;;2.00;;
61756;SDS011;57225;61.460;24.060;2023-11-22T09:24:24;4.68;;;2.33;;
61756;SDS011;57225;61.460;24.060;2023-11-22T09:27:08;12.27;;;2.63;;
61756;SDS011;57225;61.460;24.060;2023-11-22T09:29:55;11.77;;;2.50;;
61756;SDS011;57225;61.460;24.060;2023-11-22T09:32:40;12.52;;;2.63;;
61756;SDS011;57225;61.460;24.060;2023-11-22T09:35:24;10.02;;;2.15;;
61756;SDS011;57225;61.460;24.060;2023-11-22T09:38:09;4.68;;;2.05;;
61756;SDS011;57225;61.460;24.060;2023-11-22T09:40:57;4.78;;;2.40;;
61756;SDS011;57225;61.460;24.060;2023-11-22T09:43:43;12.98;;;2.20;;
61756;SDS011;57225;61.460;24.060;2023-11-22T09:46:30;3.80;;;1.98;;
61756;SDS011;57225;61.460;24.060;2023-11-22T09:49:19;6.25;;;2.08;;
61756;SDS011;57225;61.460;24.060;2023-11-22T09:52:08;6.65;;;2.05;;
61756;SDS011;57225;61.460;24.060;2023-11-22T09:55:00;4.15;;;1.70;;
61756;SDS011;57225;61.460;24.060;2023-11-22T09:57:46;5.25;;;2.03;;
61756;SDS011;57225;61.460;24.060;2023-11-22T10:00:30;6.53;;;2.03;;
61756;SDS011;57225;61.460;24.060;2023-11-22T10:03:15;3.95;;;1.40;;
61756;SDS011;57225;61.460;24.060;2023-11-22T10:06:02;13.98;;;2.42;;
61756;SDS011;57225;61.460;24.060;2023-11-22T10:08:48;3.15;;;1.70;;
61756;SDS011;57225;61.460;24.060;2023-11-22T10:11:34;7.20;;;1.90;;
61756;SDS011;57225;61.460;24.060;2023-11-22T10:14:23;17.38;;;2.17;;
61756;SDS011;57225;61.460;24.060;2023-11-22T10:17:09;10.48;;;2.30;;
61756;SDS011;57225;61.460;24.060;2023-11-22T10:19:59;14.48;;;2.45;;
61756;SDS011;57225;61.460;24.060;2023-11-22T10:22:44;11.10;;;2.20;;
61756;SDS011;57225;61.460;24.060;2023-11-22T10:25:34;11.90;;;2.03;;
61756;SDS011;57225;61.460;24.060;2023-11-22T10:28:20;7.68;;;1.88;;
61756;SDS011;57225;61.460;24.060;2023-11-22T10:31:06;9.20;;;2.20;;
61756;SDS011;57225;61.460;24.060;2023-11-22T10:33:51;4.25;;;1.80;;
61756;SDS011;57225;61.460;24.060;2023-11-22T10:36:36;4.20;;;2.00;;
61756;SDS011;57225;61.460;24.060;2023-11-22T10:39:22;15.60;;;2.30;;
61756;SDS011;57225;61.460;24.060;2023-11-22T10:42:06;12.18;;;2.30;;
61756;SDS011;57225;61.460;24.060;2023-11-22T10:44:55;10.82;;;1.90;;
61756;SDS011;57225;61.460;24.060;2023-11-22T10:47:43;4.93;;;1.90;;
61756;SDS011;57225;61.460;24.060;2023-11-22T10:50:27;8.73;;;2.05;;
61756;SDS011;57225;61.460;24.060;2023-11-22T10:53:12;12.85;;;2.40;;
61756;SDS011;57225;61.460;24.060;2023-11-22T10:56:04;7.50;;;2.13;;
61756;SDS011;57225;61.460;24.060;2023-11-22T10:58:55;5.85;;;2.22;;
61756;SDS011;57225;61.460;24.060;2023-11-22T11:01:45;11.20;;;2.15;;
61756;SDS011;57225;61.460;24.060;2023-11-22T11:04:39;17.25;;;2.17;;
61756;SDS011;57225;61.460;24.060;2023-11-22T11:07:31;24.25;;;2.85;;
61756;SDS011;57225;61.460;24.060;2023-11-22T11:10:21;29.50;;;3.33;;
61756;SDS011;57225;61.460;24.060;2023-11-22T11:13:06;12.75;;;2.67;;
61756;SDS011;57225;61.460;24.060;2023-11-22T11:15:53;3.58;;;2.15;;
61756;SDS011;57225;61.460;24.060;2023-11-22T11:18:37;6.53;;;2.38;;
61756;SDS011;57225;61.460;24.060;2023-11-22T11:21:22;4.97;;;2.13;;
61756;SDS011;57225;61.460;24.060;2023-11-22T11:24:09;15.93;;;2.83;;
61756;SDS011;57225;61.460;24.060;2023-11-22T11:26:54;7.72;;;2.00;;
61756;SDS011;57225;61.460;24.060;2023-11-22T11:29:39;11.80;;;2.47;;
61756;SDS011;57225;61.460;24.060;2023-11-22T11:32:30;7.75;;;1.80;;
61756;SDS011;57225;61.460;24.060;2023-11-22T11:35:17;9.68;;;2.85;;
61756;SDS011;57225;61.460;24.060;2023-11-22T11:38:01;6.40;;;1.88;;
61756;SDS011;57225;61.460;24.060;2023-11-22T11:40:50;14.70;;;2.42;;
61756;SDS011;57225;61.460;24.060;2023-11-22T11:43:38;9.30;;;2.33;;
61756;SDS011;57225;61.460;24.060;2023-11-22T11:46:24;6.15;;;2.40;;
61756;SDS011;57225;61.460;24.060;2023-11-22T11:49:11;8.82;;;2.42;;
61756;SDS011;57225;61.460;24.060;2023-11-22T11:52:00;4.77;;;2.30;;
61756;SDS011;57225;61.460;24.060;2023-11-22T11:54:44;8.18;;;2.40;;
61756;SDS011;57225;61.460;24.060;2023-11-22T11:57:32;7.25;;;2.35;;
61756;SDS011;57225;61.460;24.060;2023-11-22T12:00:16;10.95;;;2.05;;
61756;SDS011;57225;61.460;24.060;2023-11-22T12:03:02;4.53;;;2.03;;
61756;SDS011;57225;61.460;24.060;2023-11-22T12:05:47;7.55;;;1.80;;
61756;SDS011;57225;61.460;24.060;2023-11-22T12:08:35;20.08;;;3.10;;
61756;SDS011;57225;61.460;24.060;2023-11-22T12:11:20;3.75;;;2.05;;
61756;SDS011;57225;61.460;24.060;2023-11-22T12:14:04;15.20;;;3.15;;
61756;SDS011;57225;61.460;24.060;2023-11-22T12:16:52;5.68;;;2.17;;
61756;SDS011;57225;61.460;24.060;2023-11-22T12:19:38;5.82;;;2.40;;
61756;SDS011;57225;61.460;24.060;2023-11-22T12:22:23;20.33;;;3.22;;
61756;SDS011;57225;61.460;24.060;2023-11-22T12:25:07;6.00;;;2.63;;
61756;SDS011;57225;61.460;24.060;2023-11-22T12:27:53;4.35;;;2.17;;
61756;SDS011;57225;61.460;24.060;2023-11-22T12:30:39;5.93;;;2.45;;
61756;SDS011;57225;61.460;24.060;2023-11-22T12:33:25;11.88;;;2.38;;
61756;SDS011;57225;61.460;24.060;2023-11-22T12:36:11;7.18;;;2.70;;
61756;SDS011;57225;61.460;24.060;2023-11-22T12:39:00;4.85;;;2.55;;
61756;SDS011;57225;61.460;24.060;2023-11-22T12:41:45;8.90;;;2.58;;
61756;SDS011;57225;61.460;24.060;2023-11-22T12:44:50;4.72;;;2.38;;
61756;SDS011;57225;61.460;24.060;2023-11-22T12:47:38;6.95;;;2.67;;
61756;SDS011;57225;61.460;24.060;2023-11-22T12:50:34;10.82;;;2.55;;
61756;SDS011;57225;61.460;24.060;2023-11-22T12:53:22;6.72;;;3.08;;
61756;SDS011;57225;61.460;24.060;2023-11-22T12:56:09;8.77;;;2.65;;
61756;SDS011;57225;61.460;24.060;2023-11-22T12:58:55;4.75;;;2.30;;
61756;SDS011;57225;61.460;24.060;2023-11-22T13:01:40;7.53;;;2.50;;
61756;SDS011;57225;61.460;24.060;2023-11-22T13:04:24;3.63;;;2.38;;
61756;SDS011;57225;61.460;24.060;2023-11-22T13:07:09;11.50;;;2.42;;
61756;SDS011;57225;61.460;24.060;2023-11-22T13:09:53;8.55;;;2.92;;
61756;SDS011;57225;61.460;24.060;2023-11-22T13:12:38;7.93;;;2.80;;
61756;SDS011;57225;61.460;24.060;2023-11-22T13:15:23;6.72;;;3.10;;
61756;SDS011;57225;61.460;24.060;2023-11-22T13:18:09;7.20;;;2.67;;
61756;SDS011;57225;61.460;24.060;2023-11-22T13:20:54;12.93;;;3.00;;
61756;SDS011;57225;61.460;24.060;2023-11-22T13:23:38;12.93;;;3.00;;
61756;SDS011;57225;61.460;24.060;2023-11-22T13:26:23;7.05;;;2.75;;
61756;SDS011;57225;61.460;24.060;2023-11-22T13:29:08;7.60;;;3.13;;
61756;SDS011;57225;61.460;24.060;2023-11-22T13:31:52;21.25;;;3.40;;
61756;SDS011;57225;61.460;24.060;2023-11-22T13:34:37;5.95;;;2.75;;
61756;SDS011;57225;61.460;24.060;2023-11-22T13:37:31;9.43;;;2.90;;
61756;SDS011;57225;61.460;24.060;2023-11-22T13:40:16;4.50;;;2.72;;
61756;SDS011;57225;61.460;24.060;2023-11-22T13:43:06;8.82;;;3.92;;
61756;SDS011;57225;61.460;24.060;2023-11-22T13:45:51;8.70;;;3.03;;
61756;SDS011;57225;61.460;24.060;2023-11-22T13:48:35;7.30;;;3.35;;
61756;SDS011;57225;61.460;24.060;2023-11-22T13:51:20;5.03;;;2.50;;
61756;SDS011;57225;61.460;24.060;2023-11-22T13:54:04;6.93;;;2.90;;
61756;SDS011;57225;61.460;24.060;2023-11-22T13:56:49;7.13;;;2.92;;
61756;SDS011;57225;61.460;24.060;2023-11-22T13:59:33;5.82;;;2.78;;
61756;SDS011;57225;61.460;24.060;2023-11-22T14:02:18;7.07;;;2.80;;
61756;SDS011;57225;61.460;24.060;2023-11-22T14:05:02;4.78;;;2.40;;
61756;SDS011;57225;61.460;24.060;2023-11-22T14:07:51;5.38;;;2.67;;
61756;SDS011;57225;61.460;24.060;2023-11-22T14:10:35;8.85;;;2.72;;
61756;SDS011;57225;61.460;24.060;2023-11-22T14:13:20;5.85;;;2.75;;
61756;SDS011;57225;61.460;24.060;2023-11-22T14:16:05;4.50;;;2.53;;
61756;SDS011;57225;61.460;24.060;2023-11-22T14:18:49;8.63;;;2.55;;
61756;SDS011;57225;61.460;24.060;2023-11-22T14:21:33;8.02;;;2.22;;
61756;SDS011;57225;61.460;24.060;2023-11-22T14:24:19;7.22;;;2.70;;
61756;SDS011;57225;61.460;24.060;2023-11-22T14:27:03;4.40;;;2.30;;
61756;SDS011;57225;61.460;24.060;2023-11-22T14:29:48;4.63;;;2.58;;
61756;SDS011;57225;61.460;24.060;2023-11-22T14:32:34;3.75;;;2.30;;
61756;SDS011;57225;61.460;24.060;2023-11-22T14:35:19;5.15;;;2.35;;
61756;SDS011;57225;61.460;24.060;2023-11-22T14:38:03;6.55;;;2.38;;
61756;SDS011;57225;61.460;24.060;2023-11-22T14:40:49;5.55;;;2.15;;
61756;SDS011;57225;61.460;24.060;2023-11-22T14:43:33;6.43;;;2.03;;
61756;SDS011;57225;61.460;24.060;2023-11-22T14:46:18;5.53;;;2.20;;
61756;SDS011;57225;61.460;24.060;2023-11-22T14:49:03;5.68;;;1.80;;
61756;SDS011;57225;61.460;24.060;2023-11-22T14:51:48;5.45;;;1.77;;
61756;SDS011;57225;61.460;24.060;2023-11-22T14:54:32;4.22;;;2.00;;
61756;SDS011;57225;61.460;24.060;2023-11-22T14:57:16;4.07;;;1.73;;
61756;SDS011;57225;61.460;24.060;2023-11-22T15:00:01;5.60;;;1.80;;
61756;SDS011;57225;61.460;24.060;2023-11-22T15:02:46;5.22;;;1.73;;
61756;SDS011;57225;61.460;24.060;2023-11-22T15:05:32;4.88;;;1.67;;
61756;SDS011;57225;61.460;24.060;2023-11-22T15:08:17;4.93;;;1.63;;
61756;SDS011;57225;61.460;24.060;2023-11-22T15:11:01;4.22;;;1.75;;
61756;SDS011;57225;61.460;24.060;2023-11-22T15:13:46;6.53;;;1.40;;
61756;SDS011;57225;61.460;24.060;2023-11-22T15:16:30;6.63;;;1.42;;
61756;SDS011;57225;61.460;24.060;2023-11-22T15:19:14;6.57;;;1.73;;
61756;SDS011;57225;61.460;24.060;2023-11-22T15:21:59;10.73;;;1.83;;
61756;SDS011;57225;61.460;24.060;2023-11-22T15:24:44;5.22;;;1.45;;
61756;SDS011;57225;61.460;24.060;2023-11-22T15:27:28;3.97;;;1.50;;
61756;SDS011;57225;61.460;24.060;2023-11-22T15:30:13;7.65;;;1.38;;
61756;SDS011;57225;61.460;24.060;2023-11-22T15:32:57;3.72;;;1.42;;
61756;SDS011;57225;61.460;24.060;2023-11-22T15:35:42;4.47;;;1.50;;
61756;SDS011;57225;61.460;24.060;2023-11-22T15:38:26;4.80;;;1.38;;
61756;SDS011;57225;61.460;24.060;2023-11-22T15:41:11;6.85;;;1.52;;
61756;SDS011;57225;61.460;24.060;2023-11-22T15:43:57;4.97;;;1.60;;
61756;SDS011;57225;61.460;24.060;2023-11-22T15:46:42;4.07;;;1.40;;
61756;SDS011;57225;61.460;24.060;2023-11-22T15:49:26;6.30;;;1.33;;
61756;SDS011;57225;61.460;24.060;2023-11-22T15:52:11;3.92;;;1.33;;
61756;SDS011;57225;61.460;24.060;2023-11-22T15:54:56;6.28;;;1.90;;
61756;SDS011;57225;61.460;24.060;2023-11-22T15:57:41;4.80;;;1.45;;
61756;SDS011;57225;61.460;24.060;2023-11-22T16:00:25;4.57;;;1.52;;
61756;SDS011;57225;61.460;24.060;2023-11-22T16:03:10;4.25;;;1.40;;
61756;SDS011;57225;61.460;24.060;2023-11-22T16:06:01;10.65;;;1.55;;
61756;SDS011;57225;61.460;24.060;2023-11-22T16:08:48;5.00;;;1.38;;
61756;SDS011;57225;61.460;24.060;2023-11-22T16:11:33;4.60;;;1.38;;
61756;SDS011;57225;61.460;24.060;2023-11-22T16:14:17;5.93;;;1.50;;
61756;SDS011;57225;61.460;24.060;2023-11-22T16:17:02;7.00;;;1.55;;
61756;SDS011;57225;61.460;24.060;2023-11-22T16:19:48;5.82;;;1.92;;
61756;SDS011;57225;61.460;24.060;2023-11-22T16:22:32;6.07;;;1.67;;
61756;SDS011;57225;61.460;24.060;2023-11-22T16:25:17;3.95;;;1.55;;
61756;SDS011;57225;61.460;24.060;2023-11-22T16:28:06;2.60;;;1.50;;